Time;durP1;ratioP1;P1;durP2;ratioP2;P2;SDS_P1;SDS_P2;PMS_P1;PMS_P2;Temp;Humidity;BMP_temperature;BMP_pressure;BME280_temperature;BME280_humidity;BME280_pressure;Samples;Min_cycle;Max_cycle;Signal;HPM_P1;HPM_P2
2024/04/17 04:10:24;;;;;;;4.57;2.30;;;4.80;97.30;;;;;;5241138;27;20551;-88
2024/04/17 04:12:50;;;;;;;2.00;1.90;;;4.90;97.30;;;;;;5270729;27;20479;-68
2024/04/17 04:15:15;;;;;;;4.37;3.00;;;4.90;97.30;;;;;;5243735;27;20510;-68
2024/04/17 04:17:41;;;;;;;7.10;2.93;;;4.90;97.30;;;;;;5272696;27;20241;-68
2024/04/17 04:20:06;;;;;;;4.00;2.63;;;5.00;97.30;;;;;;5272905;27;20233;-68
2024/04/17 04:22:32;;;;;;;3.80;2.80;;;5.00;97.30;;;;;;5259103;27;20237;-68
2024/04/17 04:24:58;;;;;;;5.60;3.63;;;5.00;97.30;;;;;;5272997;27;20591;-68
2024/04/17 04:27:24;;;;;;;12.43;4.30;;;5.10;97.30;;;;;;5271297;27;20713;-68
2024/04/17 04:29:49;;;;;;;4.63;2.17;;;5.10;97.30;;;;;;5271175;27;20237;-68
2024/04/17 04:32:15;;;;;;;3.47;2.90;;;5.10;97.30;;;;;;5260522;27;20726;-68
2024/04/17 04:34:40;;;;;;;4.30;4.03;;;5.20;97.30;;;;;;5255318;27;20763;-67
2024/04/17 04:37:06;;;;;;;2.23;2.03;;;5.20;97.30;;;;;;5262887;27;20285;-68
2024/04/17 04:39:31;;;;;;;4.07;3.13;;;5.20;97.30;;;;;;5270857;27;20330;-68
2024/04/17 04:41:57;;;;;;;2.53;2.30;;;5.20;97.30;;;;;;5267923;27;20287;-68
2024/04/17 04:44:22;;;;;;;3.10;2.90;;;5.20;97.30;;;;;;5256757;27;20241;-68
2024/04/17 04:46:48;;;;;;;4.47;3.73;;;5.20;97.30;;;;;;5263913;27;20257;-68
2024/04/17 04:49:13;;;;;;;25.20;5.50;;;5.20;97.30;;;;;;5264483;27;20229;-68
2024/04/17 04:51:39;;;;;;;4.40;4.00;;;5.20;97.30;;;;;;5271999;27;20245;-68
2024/04/17 04:54:04;;;;;;;4.50;1.67;;;5.20;97.30;;;;;;5263200;27;20788;-68
2024/04/17 04:56:30;;;;;;;9.83;1.83;;;5.20;97.30;;;;;;5267946;27;20279;-68
2024/04/17 04:58:55;;;;;;;9.03;2.60;;;5.20;97.30;;;;;;5258452;27;20357;-68
2024/04/17 05:01:21;;;;;;;25.73;4.40;;;5.30;97.30;;;;;;5270608;27;20684;-68
2024/04/17 05:03:46;;;;;;;5.37;4.50;;;5.30;97.30;;;;;;5258251;27;20803;-68
2024/04/17 05:06:12;;;;;;;5.87;2.60;;;5.30;97.30;;;;;;5270715;27;20268;-68
2024/04/17 05:08:37;;;;;;;2.23;2.00;;;5.40;97.30;;;;;;5256677;27;20246;-67
2024/04/17 05:11:03;;;;;;;2.57;2.07;;;5.50;97.30;;;;;;5263292;27;20297;-68
2024/04/17 05:13:28;;;;;;;2.00;1.90;;;5.50;97.30;;;;;;5264778;27;20241;-68
2024/04/17 05:15:54;;;;;;;6.60;2.93;;;5.50;97.30;;;;;;5243892;27;20346;-68
2024/04/17 05:18:19;;;;;;;7.30;2.67;;;5.50;97.30;;;;;;5258168;27;20233;-68
2024/04/17 05:20:45;;;;;;;1.47;1.37;;;5.50;97.30;;;;;;5272180;27;20253;-68
2024/04/17 05:23:11;;;;;;;2.70;1.93;;;5.50;97.30;;;;;;5265309;27;20729;-68
2024/04/17 05:25:37;;;;;;;2.63;2.43;;;5.50;97.30;;;;;;5267203;27;20280;-68
2024/04/17 05:28:02;;;;;;;2.50;2.30;;;5.50;97.30;;;;;;5272261;27;20241;-68
2024/04/17 05:30:28;;;;;;;2.23;1.77;;;5.50;97.30;;;;;;5257664;27;20836;-68
2024/04/17 05:32:54;;;;;;;4.20;3.97;;;5.50;97.30;;;;;;5257149;27;20236;-68
2024/04/17 05:35:19;;;;;;;2.07;1.93;;;5.60;97.30;;;;;;5272308;27;20694;-68
2024/04/17 05:37:45;;;;;;;7.03;2.40;;;5.70;97.30;;;;;;5266291;27;20470;-68
2024/04/17 05:40:10;;;;;;;1.83;1.53;;;5.70;97.30;;;;;;5270581;27;20331;-68
2024/04/17 05:42:36;;;;;;;3.57;2.90;;;5.70;97.30;;;;;;5270262;27;20322;-68
2024/04/17 05:45:01;;;;;;;2.30;1.67;;;5.80;97.30;;;;;;5270660;27;20237;-68
2024/04/17 05:47:27;;;;;;;1.40;1.30;;;5.90;97.30;;;;;;5259684;27;20241;-69
2024/04/17 05:49:53;;;;;;;4.43;3.03;;;6.00;97.30;;;;;;5270118;27;20233;-67
2024/04/17 05:52:20;;;;;;;4.20;1.33;;;6.00;97.30;;;;;;5257485;27;20230;-68
2024/04/17 05:54:46;;;;;;;3.10;2.90;;;5.90;97.30;;;;;;5267220;27;20578;-69
2024/04/17 05:57:12;;;;;;;1.90;1.70;;;5.90;97.30;;;;;;5246214;27;20474;-69
2024/04/17 05:59:37;;;;;;;4.10;2.60;;;5.90;97.30;;;;;;5252125;27;20288;-68
2024/04/17 06:02:03;;;;;;;5.10;3.90;;;6.00;97.30;;;;;;5271442;27;20234;-69
2024/04/17 06:04:32;;;;;;;5.30;3.83;;;6.10;97.30;;;;;;5271527;27;20233;-69
2024/04/17 06:06:57;;;;;;;9.00;2.60;;;6.10;97.30;;;;;;5252256;27;20289;-69
2024/04/17 06:09:24;;;;;;;4.63;3.40;;;6.10;97.30;;;;;;5262220;27;20488;-68
2024/04/17 06:11:49;;;;;;;4.87;3.70;;;6.10;97.30;;;;;;5252810;27;20246;-68
2024/04/17 06:14:15;;;;;;;3.40;3.20;;;6.20;97.30;;;;;;5262194;27;20535;-69
2024/04/17 06:16:43;;;;;;;3.03;2.70;;;6.40;97.30;;;;;;5253004;27;20725;-68
2024/04/17 06:19:09;;;;;;;6.50;2.73;;;6.40;97.30;;;;;;5236155;27;20680;-69
2024/04/17 06:21:34;;;;;;;3.63;2.83;;;6.50;97.30;;;;;;5264753;27;20543;-68
2024/04/17 06:24:00;;;;;;;3.70;2.53;;;6.60;97.30;;;;;;5271192;27;20229;-68
2024/04/17 06:26:25;;;;;;;2.60;2.17;;;6.60;97.30;;;;;;5271636;27;20713;-70
2024/04/17 06:28:51;;;;;;;1.87;1.77;;;6.70;97.30;;;;;;5255528;27;20348;-68
2024/04/17 06:31:16;;;;;;;3.30;3.13;;;6.70;97.30;;;;;;5258421;27;20294;-68
2024/04/17 06:33:42;;;;;;;2.90;2.07;;;6.70;97.30;;;;;;5266459;27;20721;-69
2024/04/17 06:36:08;;;;;;;1.50;1.40;;;6.80;97.30;;;;;;5257142;27;20288;-69
2024/04/17 06:38:34;;;;;;;2.73;2.53;;;6.90;97.30;;;;;;5261717;27;20334;-68
2024/04/17 06:41:00;;;;;;;1.90;1.50;;;7.00;97.30;;;;;;5255398;27;20803;-69
2024/04/17 06:43:26;;;;;;;2.23;1.23;;;7.00;97.30;;;;;;5257179;27;20476;-70
2024/04/17 06:45:51;;;;;;;1.47;1.23;;;7.10;97.30;;;;;;5255014;27;21043;-69
2024/04/17 06:48:17;;;;;;;2.87;1.93;;;7.10;97.30;;;;;;5269372;27;20677;-69
2024/04/17 06:50:42;;;;;;;1.83;1.30;;;7.00;97.30;;;;;;5270805;27;20241;-70
2024/04/17 06:53:10;;;;;;;1.07;0.97;;;7.10;97.30;;;;;;5256770;27;20369;-72
2024/04/17 06:55:36;;;;;;;1.77;1.67;;;7.10;97.30;;;;;;5264361;27;20242;-69
2024/04/17 06:58:02;;;;;;;4.60;1.57;;;7.10;97.30;;;;;;5269397;27;21040;-69
2024/04/17 07:00:32;;;;;;;3.23;1.33;;;7.10;97.30;;;;;;5252609;27;20258;-69
2024/04/17 07:02:58;;;;;;;1.73;1.63;;;7.20;97.30;;;;;;5262684;27;20830;-69
2024/04/17 07:05:25;;;;;;;1.57;1.47;;;7.30;97.30;;;;;;5245912;27;20474;-69
2024/04/17 07:07:50;;;;;;;1.53;1.43;;;7.40;97.30;;;;;;5249432;27;20476;-72
2024/04/17 07:10:16;;;;;;;1.90;1.73;;;7.50;97.30;;;;;;5260699;27;20461;-68
2024/04/17 07:12:41;;;;;;;1.77;1.67;;;7.70;97.30;;;;;;5271448;27;20249;-69
2024/04/17 07:15:07;;;;;;;1.47;1.10;;;7.80;97.30;;;;;;5258005;27;20236;-74
2024/04/17 07:17:33;;;;;;;1.60;1.50;;;7.90;97.30;;;;;;5274000;27;20577;-71
2024/04/17 07:19:58;;;;;;;2.87;2.17;;;7.90;97.30;;;;;;5273792;27;20233;-68
2024/04/17 07:22:24;;;;;;;2.67;2.47;;;7.90;97.30;;;;;;5260162;27;20281;-71
2024/04/17 07:24:49;;;;;;;1.63;1.53;;;8.00;97.30;;;;;;5269168;27;20237;-69
2024/04/17 07:27:15;;;;;;;1.93;1.83;;;8.10;97.30;;;;;;5264377;27;20344;-69
2024/04/17 07:29:40;;;;;;;1.30;1.20;;;8.30;97.30;;;;;;5252004;27;20583;-69
2024/04/17 07:32:06;;;;;;;1.80;1.67;;;8.50;97.30;;;;;;5247177;27;20646;-70
2024/04/17 07:34:31;;;;;;;1.73;1.63;;;8.60;97.30;;;;;;5260704;27;20241;-74
2024/04/17 07:36:57;;;;;;;3.67;2.10;;;8.60;97.30;;;;;;5258538;27;20245;-70
2024/04/17 07:39:22;;;;;;;1.40;1.30;;;8.50;97.30;;;;;;5271825;27;20244;-68
2024/04/17 07:41:49;;;;;;;1.43;1.33;;;8.40;97.30;;;;;;5245498;27;20587;-69
2024/04/17 07:44:14;;;;;;;1.23;1.13;;;8.40;97.30;;;;;;5272005;27;20245;-69
2024/04/17 07:46:40;;;;;;;2.00;1.90;;;8.60;97.30;;;;;;5244433;27;20603;-69
2024/04/17 07:49:05;;;;;;;1.63;1.57;;;8.80;97.30;;;;;;5246785;27;20667;-72
2024/04/17 07:51:31;;;;;;;1.30;1.20;;;8.90;97.30;;;;;;5271495;27;20480;-69
2024/04/17 07:53:56;;;;;;;6.90;2.00;;;8.90;97.30;;;;;;5254915;27;20242;-69
2024/04/17 07:56:22;;;;;;;1.40;1.30;;;8.90;97.30;;;;;;5252141;27;20276;-77
2024/04/17 07:58:47;;;;;;;1.10;1.00;;;9.10;97.30;;;;;;5267521;27;20830;-71
2024/04/17 08:01:13;;;;;;;1.73;1.33;;;9.30;97.30;;;;;;5261836;27;20765;-69
2024/04/17 08:03:39;;;;;;;1.20;1.10;;;9.50;97.30;;;;;;5257412;27;20284;-75
2024/04/17 08:06:05;;;;;;;2.60;2.00;;;9.50;97.30;;;;;;5258180;27;20316;-72
2024/04/17 08:08:30;;;;;;;4.10;1.87;;;9.40;97.30;;;;;;5273301;27;20237;-70
2024/04/17 08:10:56;;;;;;;1.07;0.90;;;9.30;97.30;;;;;;5264895;27;20573;-69
2024/04/17 08:13:21;;;;;;;2.33;1.70;;;9.30;97.30;;;;;;5270044;27;20245;-70
2024/04/17 08:15:53;;;;;;;1.60;1.37;;;9.20;97.30;;;;;;5255646;27;20260;-69
2024/04/17 08:18:20;;;;;;;2.07;1.40;;;9.10;97.30;;;;;;5258758;27;20229;-69
2024/04/17 08:20:45;;;;;;;3.13;2.93;;;9.10;97.30;;;;;;5243808;27;20546;-69
2024/04/17 08:23:11;;;;;;;2.00;1.53;;;9.20;97.30;;;;;;5273663;27;20511;-69
2024/04/17 08:25:39;;;;;;;1.87;1.57;;;9.20;97.30;;;;;;5266039;27;20269;-69
2024/04/17 08:28:05;;;;;;;2.70;2.50;;;9.30;97.30;;;;;;5259963;27;20528;-68
2024/04/17 08:30:30;;;;;;;1.20;1.10;;;9.40;97.30;;;;;;5259879;27;20497;-69
2024/04/17 08:32:56;;;;;;;1.97;1.43;;;9.30;97.30;;;;;;5265804;27;20265;-69
2024/04/17 08:35:21;;;;;;;7.50;2.27;;;9.20;97.30;;;;;;5251635;27;20298;-69
2024/04/17 08:37:47;;;;;;;2.33;2.13;;;9.20;97.30;;;;;;5258354;27;20276;-71
2024/04/17 08:40:13;;;;;;;1.40;1.30;;;9.10;97.30;;;;;;5271503;27;20776;-69
2024/04/17 08:42:41;;;;;;;2.40;2.23;;;9.10;97.30;;;;;;5272940;27;20233;-69
2024/04/17 08:45:11;;;;;;;2.50;1.63;;;9.10;97.30;;;;;;5258062;27;20907;-69
2024/04/17 08:47:39;;;;;;;3.73;2.57;;;9.10;97.30;;;;;;5271286;27;20561;-69
2024/04/17 08:50:05;;;;;;;1.20;1.10;;;9.20;97.30;;;;;;5270778;27;20476;-69
2024/04/17 08:52:34;;;;;;;0.90;0.80;;;9.30;97.30;;;;;;5246730;27;20525;-69
2024/04/17 08:55:00;;;;;;;1.30;1.20;;;9.50;97.30;;;;;;5271028;27;20464;-69
2024/04/17 08:57:26;;;;;;;1.67;1.20;;;9.70;97.30;;;;;;5270892;27;20456;-69
2024/04/17 08:59:52;;;;;;;2.30;1.70;;;9.80;97.30;;;;;;5257119;27;20517;-69
2024/04/17 09:02:18;;;;;;;1.90;1.80;;;10.10;97.30;;;;;;5270848;27;20491;-73
2024/04/17 09:04:45;;;;;;;2.40;1.73;;;10.30;97.30;;;;;;5270941;27;20594;-74
2024/04/17 09:07:11;;;;;;;1.27;1.17;;;10.20;97.30;;;;;;5270601;27;20528;-72
2024/04/17 09:09:38;;;;;;;1.93;1.53;;;10.10;97.30;;;;;;5258630;27;20465;-72
2024/04/17 09:12:05;;;;;;;2.60;1.97;;;10.10;97.30;;;;;;5264326;27;20549;-72
2024/04/17 09:14:31;;;;;;;1.70;1.60;;;10.00;97.30;;;;;;5250557;27;20584;-72
2024/04/17 09:16:56;;;;;;;1.20;1.10;;;9.90;97.30;;;;;;5272097;27;20528;-72
2024/04/17 09:19:22;;;;;;;1.93;1.33;;;9.80;97.30;;;;;;5270821;27;20241;-72
2024/04/17 09:21:48;;;;;;;2.10;2.00;;;9.70;97.30;;;;;;5268992;27;20244;-72
2024/04/17 09:24:13;;;;;;;1.00;0.90;;;9.60;97.30;;;;;;5250489;27;20277;-72
2024/04/17 09:26:40;;;;;;;1.50;1.40;;;9.60;97.30;;;;;;5252201;27;20292;-73
2024/04/17 09:29:05;;;;;;;1.57;1.20;;;9.60;97.30;;;;;;5250537;27;20250;-72
2024/04/17 09:31:31;;;;;;;2.50;2.30;;;9.60;97.30;;;;;;5238262;27;20593;-72
2024/04/17 09:34:00;;;;;;;1.33;1.23;;;9.80;97.30;;;;;;5254494;27;20343;-72
2024/04/17 09:36:25;;;;;;;1.73;1.63;;;10.20;97.30;;;;;;5253819;27;20245;-73
2024/04/17 09:38:51;;;;;;;2.07;1.80;;;10.60;97.30;;;;;;5253428;27;20814;-72
2024/04/17 09:41:16;;;;;;;1.73;1.63;;;11.00;96.60;;;;;;5247184;27;20588;-72
2024/04/17 09:43:42;;;;;;;1.90;1.87;;;11.30;95.50;;;;;;5263070;27;20263;-73
2024/04/17 09:46:09;;;;;;;1.17;1.07;;;11.40;94.70;;;;;;5264718;27;20277;-72
2024/04/17 09:48:41;;;;;;;4.30;2.03;;;11.40;94.00;;;;;;5250336;27;20261;-72
2024/04/17 09:51:08;;;;;;;2.07;1.40;;;11.40;93.50;;;;;;5250214;27;21063;-81
2024/04/17 09:53:40;;;;;;;1.83;1.67;;;11.30;93.30;;;;;;5252043;27;20530;-78
2024/04/17 09:56:09;;;;;;;1.73;1.23;;;11.00;94.50;;;;;;5270571;27;20492;-72
2024/04/17 09:58:35;;;;;;;3.53;1.73;;;10.70;95.20;;;;;;5258759;27;20527;-72
2024/04/17 10:01:06;;;;;;;2.30;1.77;;;10.50;96.20;;;;;;5268044;27;20533;-71
2024/04/17 10:03:38;;;;;;;7.47;3.57;;;10.10;97.30;;;;;;5247158;27;20513;-70
2024/04/17 10:06:04;;;;;;;2.70;2.13;;;9.90;97.30;;;;;;5269591;27;20848;-70
2024/04/17 10:08:32;;;;;;;2.43;2.23;;;9.50;97.30;;;;;;5257345;27;20472;-69
2024/04/17 10:10:58;;;;;;;1.50;1.40;;;9.30;97.30;;;;;;5268487;27;20480;-69
2024/04/17 10:13:24;;;;;;;1.10;1.00;;;9.10;97.30;;;;;;5279153;21;21107;-65
2024/04/17 10:15:54;;;;;;;1.27;1.00;;;8.80;97.30;;;;;;5305181;26;20463;-65
2024/04/17 10:18:20;;;;;;;1.47;1.37;;;8.60;97.30;;;;;;5274766;27;20470;-65
2024/04/17 10:20:46;;;;;;;2.30;1.50;;;8.40;97.30;;;;;;5279179;27;20916;-65
2024/04/17 10:23:15;;;;;;;2.70;2.13;;;8.20;97.30;;;;;;5291229;26;20458;-65
2024/04/17 10:25:47;;;;;;;2.93;1.43;;;8.20;97.30;;;;;;5305140;26;20337;-65
2024/04/17 10:28:14;;;;;;;4.70;2.67;;;8.20;97.30;;;;;;5305134;26;20620;-65
2024/04/17 10:30:40;;;;;;;1.53;1.50;;;8.20;97.30;;;;;;5305134;26;20553;-64
2024/04/17 10:33:29;;;;;;;1.23;1.00;;;8.30;97.30;;;;;;5303878;26;20515;-65
2024/04/17 10:35:56;;;;;;;3.23;1.40;;;8.60;97.30;;;;;;5305132;26;20782;-65
2024/04/17 10:38:25;;;;;;;2.80;2.03;;;8.70;97.30;;;;;;5294626;26;20588;-65
2024/04/17 10:40:55;;;;;;;1.00;0.90;;;8.60;97.30;;;;;;5304883;26;20467;-65
2024/04/17 10:43:22;;;;;;;1.17;1.07;;;8.50;97.30;;;;;;5302965;26;20526;-64
2024/04/17 10:45:58;;;;;;;1.90;1.80;;;8.50;97.30;;;;;;5319402;26;21077;-65
2024/04/17 10:48:25;;;;;;;1.00;0.90;;;8.40;97.30;;;;;;5293025;26;20519;-65
2024/04/17 10:50:51;;;;;;;1.53;0.93;;;8.30;97.30;;;;;;5303292;26;20564;-66
2024/04/17 10:53:18;;;;;;;2.90;1.13;;;8.20;97.30;;;;;;5301299;26;20475;-65
2024/04/17 10:55:44;;;;;;;0.97;0.87;;;8.20;97.30;;;;;;5303725;26;21026;-65
2024/04/17 10:58:12;;;;;;;1.97;1.87;;;8.00;97.30;;;;;;5329641;26;20590;-65
2024/04/17 11:00:38;;;;;;;1.27;1.13;;;7.90;97.30;;;;;;5305204;26;20266;-66
2024/04/17 11:03:03;;;;;;;0.90;0.90;;;7.90;97.30;;;;;;5299473;26;20471;-66
2024/04/17 11:05:30;;;;;;;1.73;1.53;;;8.10;97.30;;;;;;5293817;26;20232;-66
2024/04/17 11:07:56;;;;;;;1.10;1.00;;;8.40;97.30;;;;;;5303775;26;20232;-65
2024/04/17 11:10:22;;;;;;;1.00;0.90;;;8.80;97.30;;;;;;5302919;26;20538;-66
2024/04/17 11:12:48;;;;;;;1.30;1.20;;;9.40;97.30;;;;;;5304830;26;20527;-66
2024/04/17 11:15:14;;;;;;;3.07;2.13;;;9.80;97.30;;;;;;5304738;26;20467;-66
2024/04/17 11:17:42;;;;;;;1.63;1.53;;;10.10;97.30;;;;;;5291345;26;20276;-66
2024/04/17 11:20:10;;;;;;;2.00;1.77;;;10.30;97.30;;;;;;5306705;26;20270;-66
2024/04/17 11:22:35;;;;;;;1.27;1.23;;;10.70;97.30;;;;;;5324751;26;20576;-66
2024/04/17 11:25:03;;;;;;;2.37;2.17;;;10.90;97.30;;;;;;5308147;26;20475;-66
2024/04/17 11:27:29;;;;;;;1.70;1.47;;;11.10;97.30;;;;;;5304587;26;20611;-65
2024/04/17 11:29:55;;;;;;;1.57;1.47;;;11.30;97.30;;;;;;5304500;26;20455;-66
2024/04/17 11:32:20;;;;;;;1.30;1.20;;;11.60;97.30;;;;;;5304104;26;20240;-67
2024/04/17 11:34:46;;;;;;;15.17;1.23;;;11.80;97.30;;;;;;5304398;26;20803;-66
2024/04/17 11:37:13;;;;;;;1.57;1.47;;;12.10;97.30;;;;;;5316403;26;20726;-66
2024/04/17 11:39:39;;;;;;;1.10;1.00;;;12.20;97.30;;;;;;5305829;26;20765;-67
2024/04/17 11:42:08;;;;;;;2.03;1.87;;;12.50;97.30;;;;;;5307142;26;20594;-67
2024/04/17 11:44:38;;;;;;;1.17;1.07;;;12.90;97.30;;;;;;5288414;26;20451;-66
2024/04/17 11:47:12;;;;;;;0.93;0.90;;;12.80;95.40;;;;;;5318387;26;20473;-66
2024/04/17 11:49:37;;;;;;;5.13;1.87;;;12.80;95.70;;;;;;5304638;26;20463;-66
2024/04/17 11:52:11;;;;;;;1.40;1.30;;;13.00;96.50;;;;;;5304231;26;21114;-66
2024/04/17 11:54:36;;;;;;;1.50;1.40;;;13.10;90.80;;;;;;5304110;26;20287;-67
2024/04/17 11:57:02;;;;;;;0.77;0.73;;;13.40;96.90;;;;;;5306888;26;20467;-66
2024/04/17 11:59:28;;;;;;;1.60;1.50;;;13.50;95.10;;;;;;5307032;26;20716;-67
2024/04/17 12:01:54;;;;;;;1.27;1.20;;;13.80;94.60;;;;;;5306905;26;20860;-66
2024/04/17 12:04:27;;;;;;;1.10;1.00;;;13.80;93.90;;;;;;5306981;26;20264;-67
2024/04/17 12:06:53;;;;;;;1.77;1.00;;;13.80;91.20;;;;;;5293734;26;20615;-66
2024/04/17 12:09:19;;;;;;;1.50;1.50;;;14.10;91.10;;;;;;5304882;26;20466;-66
2024/04/17 12:11:44;;;;;;;1.73;1.47;;;14.30;91.60;;;;;;5321522;26;20467;-66
2024/04/17 12:14:10;;;;;;;1.23;1.23;;;14.40;90.90;;;;;;5290278;26;20244;-66
2024/04/17 12:16:35;;;;;;;1.50;1.40;;;14.60;94.90;;;;;;5305210;26;20228;-67
2024/04/17 12:19:01;;;;;;;1.17;1.07;;;14.50;92.80;;;;;;5297574;26;20233;-67
2024/04/17 12:21:26;;;;;;;1.07;1.00;;;14.40;91.70;;;;;;5306909;26;20235;-66
2024/04/17 12:23:55;;;;;;;1.10;0.97;;;13.90;89.60;;;;;;5306793;26;20232;-67
2024/04/17 12:29:04;;;;;;;1.10;1.00;;;13.30;86.80;;;;;;5306752;26;20523;-67
2024/04/17 12:31:29;;;;;;;1.10;1.00;;;13.10;85.40;;;;;;5306685;26;20467;-67
2024/04/17 12:33:55;;;;;;;1.10;1.00;;;12.70;84.90;;;;;;5305122;26;20704;-67
2024/04/17 12:36:21;;;;;;;3.90;1.43;;;12.20;89.80;;;;;;5306653;26;20244;-67
2024/04/17 12:38:47;;;;;;;1.10;1.00;;;11.80;91.90;;;;;;5293478;26;20228;-67
2024/04/17 12:41:13;;;;;;;1.33;1.23;;;11.40;93.70;;;;;;5306660;26;20274;-67
2024/04/17 12:43:39;;;;;;;1.00;0.90;;;11.20;94.20;;;;;;5304624;26;20816;-67
2024/04/17 12:46:06;;;;;;;1.10;1.00;;;10.90;95.30;;;;;;5320846;26;20526;-67
2024/04/17 12:48:32;;;;;;;2.20;1.00;;;10.80;96.70;;;;;;5320985;26;20447;-66
2024/04/17 12:50:57;;;;;;;1.00;0.90;;;10.60;97.20;;;;;;5306527;26;20523;-67
2024/04/17 12:53:23;;;;;;;1.17;0.90;;;10.50;97.30;;;;;;5306213;26;20232;-67
2024/04/17 12:55:55;;;;;;;2.93;1.77;;;10.40;96.60;;;;;;5294687;26;20965;-66
2024/04/17 12:58:24;;;;;;;2.20;0.90;;;10.30;96.20;;;;;;5304755;26;20243;-66
2024/04/17 13:00:50;;;;;;;1.10;1.00;;;10.30;96.50;;;;;;5306122;26;20904;-66
2024/04/17 13:03:16;;;;;;;1.07;1.00;;;10.20;96.30;;;;;;5306278;26;20472;-66
2024/04/17 13:05:42;;;;;;;2.00;1.50;;;10.30;97.00;;;;;;5306209;26;21109;-67
2024/04/17 13:08:07;;;;;;;1.27;1.17;;;10.20;95.40;;;;;;5299958;26;20652;-67
2024/04/17 13:10:33;;;;;;;1.00;1.00;;;10.20;94.70;;;;;;5306481;26;20232;-67
2024/04/17 13:12:58;;;;;;;3.20;2.23;;;10.00;97.20;;;;;;5305926;26;20240;-68
2024/04/17 13:15:25;;;;;;;2.00;1.30;;;9.70;97.30;;;;;;5320181;26;20232;-65
2024/04/17 13:17:51;;;;;;;0.90;0.80;;;9.60;97.30;;;;;;5318178;26;20676;-67
2024/04/17 13:20:17;;;;;;;2.30;2.10;;;9.40;97.30;;;;;;5307968;26;21013;-67
2024/04/17 13:22:43;;;;;;;2.23;2.03;;;9.20;97.30;;;;;;5306031;26;20232;-66
2024/04/17 13:25:08;;;;;;;1.30;1.20;;;9.20;97.30;;;;;;5305936;26;20459;-68
2024/04/17 13:27:36;;;;;;;1.23;1.13;;;9.20;97.30;;;;;;5303974;26;20239;-66
2024/04/17 13:30:02;;;;;;;1.63;1.53;;;9.10;97.30;;;;;;5305928;26;20240;-71
2024/04/17 13:32:28;;;;;;;1.40;1.30;;;9.00;97.30;;;;;;5305582;26;20546;-67
2024/04/17 13:34:55;;;;;;;1.13;1.03;;;8.80;97.30;;;;;;5314072;26;20507;-67
2024/04/17 13:37:22;;;;;;;1.30;1.20;;;8.80;97.30;;;;;;5314990;26;21050;-67
2024/04/17 13:39:47;;;;;;;1.27;1.17;;;8.80;97.30;;;;;;5309799;26;20574;-67
2024/04/17 13:42:13;;;;;;;1.20;1.10;;;8.90;97.30;;;;;;5302522;26;20471;-69
2024/04/17 13:44:39;;;;;;;1.33;1.23;;;9.00;97.30;;;;;;5306069;26;20224;-67
2024/04/17 13:47:05;;;;;;;3.13;2.70;;;9.10;97.30;;;;;;5305740;26;20588;-66
2024/04/17 13:49:31;;;;;;;1.50;1.40;;;9.20;97.30;;;;;;5304264;26;20948;-67
2024/04/17 13:51:57;;;;;;;1.37;1.27;;;9.30;97.30;;;;;;5319779;26;20459;-68
2024/04/17 13:54:22;;;;;;;2.60;2.33;;;9.50;97.30;;;;;;5305490;26;20232;-67
2024/04/17 13:56:48;;;;;;;2.17;1.23;;;9.70;97.30;;;;;;5314266;26;20276;-66
2024/04/17 13:59:13;;;;;;;2.27;2.07;;;9.80;97.30;;;;;;5308891;26;20376;-67
2024/04/17 14:01:39;;;;;;;1.27;1.20;;;9.90;97.30;;;;;;5303842;26;20785;-67
2024/04/17 14:04:05;;;;;;;2.27;1.63;;;9.90;97.30;;;;;;5305361;26;20299;-67
2024/04/17 14:06:30;;;;;;;1.10;1.00;;;9.90;97.30;;;;;;5305079;26;20278;-68
2024/04/17 14:08:56;;;;;;;0.90;0.80;;;10.00;97.30;;;;;;5305574;26;20302;-67
2024/04/17 14:11:21;;;;;;;1.33;1.23;;;9.90;97.30;;;;;;5304874;26;20823;-67
2024/04/17 14:13:47;;;;;;;1.40;1.30;;;9.70;97.30;;;;;;5304972;26;20235;-67
2024/04/17 14:16:12;;;;;;;2.30;1.47;;;9.70;97.30;;;;;;5304902;26;20229;-67
2024/04/17 14:18:38;;;;;;;1.30;1.27;;;9.60;97.30;;;;;;5303578;26;20675;-67
2024/04/17 14:21:10;;;;;;;1.43;1.20;;;9.60;97.30;;;;;;5304845;26;20714;-68
2024/04/17 14:23:36;;;;;;;2.50;1.73;;;9.70;97.30;;;;;;5319720;26;20322;-68
2024/04/17 14:26:02;;;;;;;1.10;1.00;;;9.80;97.30;;;;;;5297559;26;20515;-67
2024/04/17 14:28:29;;;;;;;3.47;1.80;;;9.90;97.30;;;;;;5304245;26;20282;-66
2024/04/17 14:31:02;;;;;;;1.53;1.43;;;9.90;97.30;;;;;;5305385;26;20240;-68
2024/04/17 14:33:29;;;;;;;1.40;1.30;;;9.90;97.30;;;;;;5304512;26;20475;-68
2024/04/17 14:35:55;;;;;;;1.57;1.47;;;9.90;97.30;;;;;;5305088;26;20510;-68
2024/04/17 14:38:21;;;;;;;2.00;1.90;;;9.90;97.30;;;;;;5303938;26;20459;-69
2024/04/17 14:41:00;;;;;;;6.23;1.67;;;9.90;97.30;;;;;;5304901;26;20356;-68
2024/04/17 14:43:28;;;;;;;1.47;1.37;;;9.70;97.30;;;;;;5303870;26;20504;-68
2024/04/17 14:45:55;;;;;;;1.50;1.40;;;9.70;97.30;;;;;;5297405;26;20586;-69
2024/04/17 14:48:21;;;;;;;1.63;1.53;;;9.60;97.30;;;;;;5287353;26;20480;-66
2024/04/17 14:50:46;;;;;;;2.33;1.97;;;9.50;97.30;;;;;;5288122;26;20519;-69
2024/04/17 14:53:12;;;;;;;2.90;1.17;;;9.30;97.30;;;;;;5291927;26;21973;-68
2024/04/17 14:55:37;;;;;;;1.13;1.03;;;9.20;97.30;;;;;;5298178;26;20233;-68
2024/04/17 14:58:03;;;;;;;2.90;2.57;;;9.10;97.30;;;;;;5287483;26;20276;-69
2024/04/17 15:00:28;;;;;;;2.10;1.53;;;9.00;97.30;;;;;;5294816;26;20286;-68
2024/04/17 15:02:54;;;;;;;1.57;1.47;;;8.90;97.30;;;;;;5298378;26;20237;-69
2024/04/17 15:05:20;;;;;;;1.37;1.17;;;8.80;97.30;;;;;;5288830;26;20225;-69
2024/04/17 15:07:46;;;;;;;1.20;1.10;;;8.80;97.30;;;;;;5294647;26;20270;-69
2024/04/17 15:10:15;;;;;;;1.80;1.70;;;8.70;97.30;;;;;;5296251;26;20477;-69
2024/04/17 15:12:41;;;;;;;2.60;2.10;;;;;;;;;;5284186;26;20270;-69
2024/04/17 15:15:06;;;;;;;1.67;1.20;;;8.70;97.30;;;;;;5280819;26;20472;-69
2024/04/17 15:17:32;;;;;;;1.50;1.40;;;8.60;97.30;;;;;;5294675;26;20459;-68
2024/04/17 15:19:57;;;;;;;1.60;1.50;;;8.50;97.30;;;;;;5290598;26;20292;-68
2024/04/17 15:22:23;;;;;;;5.60;1.53;;;8.50;97.30;;;;;;5287263;26;20777;-68
2024/04/17 15:24:51;;;;;;;1.13;1.03;;;8.40;97.30;;;;;;5278199;26;20243;-69
2024/04/17 15:27:16;;;;;;;2.27;2.07;;;8.30;97.30;;;;;;5289364;26;20245;-68
2024/04/17 15:29:45;;;;;;;3.73;1.67;;;8.30;97.30;;;;;;5292245;26;21057;-68
2024/04/17 15:32:10;;;;;;;1.77;1.67;;;8.30;97.30;;;;;;5284816;26;20298;-69
2024/04/17 15:34:36;;;;;;;1.83;1.60;;;8.40;97.30;;;;;;5287431;26;20454;-68
2024/04/17 15:37:01;;;;;;;2.07;1.93;;;8.50;97.30;;;;;;5306813;26;20309;-69
2024/04/17 15:39:27;;;;;;;1.33;1.17;;;8.60;97.30;;;;;;5296877;26;20277;-69
2024/04/17 15:41:52;;;;;;;1.50;1.40;;;8.70;97.30;;;;;;5282887;26;20655;-69
2024/04/17 15:44:19;;;;;;;1.20;1.10;;;8.90;97.30;;;;;;5296118;26;20271;-69
2024/04/17 15:46:44;;;;;;;2.47;2.03;;;8.90;97.30;;;;;;5292068;26;20271;-68
2024/04/17 15:49:10;;;;;;;1.20;1.10;;;8.90;97.30;;;;;;5307312;26;20460;-68
2024/04/17 15:51:36;;;;;;;1.10;0.83;;;8.90;97.30;;;;;;5304262;26;20258;-68
2024/04/17 15:54:01;;;;;;;1.00;0.90;;;8.80;97.30;;;;;;5291153;26;20284;-69
2024/04/17 15:56:27;;;;;;;1.20;1.10;;;8.70;97.30;;;;;;5293004;26;20361;-67
2024/04/17 15:58:52;;;;;;;1.93;1.53;;;8.70;97.30;;;;;;5302119;26;20236;-70
2024/04/17 16:01:18;;;;;;;3.00;1.77;;;8.60;97.30;;;;;;5293390;26;20240;-69
2024/04/17 16:03:50;;;;;;;8.43;2.00;;;8.50;97.30;;;;;;5300946;26;20235;-69
2024/04/17 16:06:19;;;;;;;1.57;1.47;;;8.50;97.30;;;;;;5290042;26;20479;-70
2024/04/17 16:08:44;;;;;;;1.00;0.90;;;8.50;97.30;;;;;;5294597;26;20561;-71
2024/04/17 16:11:10;;;;;;;1.53;1.43;;;8.40;97.30;;;;;;5289418;26;20528;-69
2024/04/17 16:13:37;;;;;;;1.83;1.30;;;8.50;97.30;;;;;;5288289;26;20291;-68
2024/04/17 16:16:05;;;;;;;1.10;1.00;;;8.60;97.30;;;;;;5293398;26;20774;-69
2024/04/17 16:18:31;;;;;;;1.70;1.67;;;8.60;97.30;;;;;;5296789;26;20460;-69
2024/04/17 16:20:57;;;;;;;2.40;2.00;;;8.60;97.30;;;;;;5289189;26;20612;-69
2024/04/17 16:23:33;;;;;;;3.20;2.67;;;8.70;97.30;;;;;;5302319;26;20228;-70
2024/04/17 16:25:59;;;;;;;22.00;3.73;;;8.80;97.30;;;;;;5299044;26;20623;-69
2024/04/17 16:28:24;;;;;;;1.83;1.37;;;8.80;97.30;;;;;;5296942;26;20536;-69
2024/04/17 16:30:50;;;;;;;1.83;1.63;;;8.90;97.30;;;;;;5295849;26;20322;-69
2024/04/17 16:33:16;;;;;;;2.90;1.67;;;8.90;97.30;;;;;;5293444;26;20300;-69
2024/04/17 16:35:41;;;;;;;3.57;2.03;;;8.90;97.30;;;;;;5321409;26;20466;-70
2024/04/17 16:38:07;;;;;;;1.40;1.30;;;8.90;97.30;;;;;;5298209;26;20402;-69
2024/04/17 16:40:32;;;;;;;1.30;1.13;;;9.00;97.30;;;;;;5302873;26;20280;-69
2024/04/17 16:42:58;;;;;;;1.20;1.10;;;9.00;97.30;;;;;;5294564;26;20232;-69
2024/04/17 16:45:24;;;;;;;2.47;2.27;;;9.00;97.30;;;;;;5296861;26;20276;-69
2024/04/17 16:47:49;;;;;;;1.33;1.23;;;9.00;97.30;;;;;;5290626;26;20327;-69
2024/04/17 16:50:18;;;;;;;1.00;0.90;;;9.00;97.30;;;;;;5283969;26;20249;-69
2024/04/17 16:52:50;;;;;;;2.23;2.03;;;9.10;97.30;;;;;;5284759;26;20714;-69
2024/04/17 16:55:16;;;;;;;5.43;1.70;;;9.10;97.30;;;;;;5289784;26;20464;-72
2024/04/17 16:57:41;;;;;;;6.70;1.70;;;9.10;97.30;;;;;;5283509;26;20513;-69
2024/04/17 17:00:07;;;;;;;4.50;2.37;;;9.00;97.30;;;;;;5300035;26;20353;-69
2024/04/17 17:02:34;;;;;;;1.00;0.90;;;9.00;97.30;;;;;;5298578;26;20278;-69